Decoded Metar for PAKN (KING SALMON in AK, USA) (IATA:AKN) | Meteo·Mobile Aviation Weather
aviador You're here:

PAKN Decoded Metar

KING SALMON in AK, USA
Report Time2019-07-22 00:54:00
UTC Time2019-07-22 01:11:52
Flight Rules mvfr MVFR
WindCalm
Visibility9999 m
Phenomena:N/A
Clouds:Overcast 023 Hf
Expected CloudBase > 2,800 ft AGL from Temp-Dew spread
Ceiling2,300 ft
Temp17°C (ISA +2)
Dew Point10°C (64% RH)
QNH1021 hPa
Density Alt200 ft
Elevation56 ft
Report Wrong Elevation
Raw Report
PAKN 220054Z 00000KT 9SM OVC023 17/10 A3015 RMK AO2 SLP210
T01670100=

Extra information for PAKN:More info

Metar Taf Metar & Taf Last 4 Metars F.Rules Stats Wind Profile Meteogram Temp Stats Airport Information Weather charts Add Link Nearby VenuesMetar ALERT Operation Metar Decoded Social comments

AIRNAV info for PAKN